createdAt,value
2023-02-04T00:00:57.172Z,77.05
2023-02-04T00:03:46.973Z,76.35
2023-02-04T00:06:36.324Z,79.07
2023-02-04T00:09:19.082Z,80.63
2023-02-04T00:12:07.256Z,82.50
2023-02-04T00:14:50.028Z,81.13
2023-02-04T00:17:38.732Z,78.80
2023-02-04T00:20:22.064Z,76.70
2023-02-04T00:23:10.293Z,76.25
2023-02-04T00:25:53.020Z,76.40
2023-02-04T00:28:35.314Z,76.80
2023-02-04T00:31:23.991Z,73.68
2023-02-04T00:34:12.985Z,73.43
2023-02-04T00:36:55.222Z,74.88
2023-02-04T00:39:45.355Z,76.65
2023-02-04T00:42:27.234Z,76.75
2023-02-04T00:45:18.051Z,78.57
2023-02-04T00:48:00.188Z,80.35
2023-02-04T00:50:48.923Z,76.38
2023-02-04T00:53:31.266Z,78.80
2023-02-04T00:56:19.968Z,78.00
2023-02-04T00:59:02.350Z,75.75
2023-02-04T01:01:50.952Z,78.53
2023-02-04T01:04:33.233Z,74.82
2023-02-04T01:07:22.067Z,78.45
2023-02-04T01:10:04.339Z,78.50
2023-02-04T01:12:52.970Z,76.88
2023-02-04T01:15:41.955Z,78.50
2023-02-04T01:18:24.468Z,78.47
2023-02-04T01:21:14.077Z,82.05
2023-02-04T01:24:02.195Z,82.20
2023-02-04T01:27:03.922Z,83.30
2023-02-04T01:29:53.013Z,82.63
2023-02-04T01:32:48.783Z,81.97
2023-02-04T01:35:37.910Z,80.47
2023-02-04T01:38:20.371Z,78.93
2023-02-04T01:41:08.897Z,82.90
2023-02-04T01:43:51.349Z,81.25
2023-02-04T01:46:41.968Z,88.68
2023-02-04T01:49:26.225Z,89.18
2023-02-04T01:52:14.908Z,89.03
2023-02-04T01:55:05.030Z,94.20
2023-02-04T01:57:56.930Z,99.13
2023-02-04T02:00:40.928Z,96.97
2023-02-04T02:03:29.243Z,100.97
2023-02-04T02:06:11.971Z,98.68
2023-02-04T02:09:02.027Z,97.50
2023-02-04T02:11:45.251Z,100.55
2023-02-04T02:14:33.916Z,104.40
2023-02-04T02:17:16.232Z,108.60
2023-02-04T02:20:05.927Z,108.60
2023-02-04T02:22:54.987Z,106.20
2023-02-04T02:25:43.949Z,107.07
2023-02-04T02:28:29.214Z,102.20
2023-02-04T02:31:18.112Z,104.15
2023-02-04T02:34:12.970Z,106.72
2023-02-04T02:37:02.011Z,106.95
2023-02-04T02:39:55.908Z,106.55
2023-02-04T02:42:45.408Z,104.38
2023-02-04T02:45:34.954Z,107.60
2023-02-04T02:48:18.984Z,105.47
2023-02-04T02:51:07.939Z,112.90
2023-02-04T02:53:52.443Z,109.22
2023-02-04T02:56:41.963Z,113.28
2023-02-04T02:59:24.655Z,108.93
2023-02-04T03:02:16.974Z,109.82
2023-02-04T03:05:02.087Z,104.75
2023-02-04T03:07:52.054Z,109.78
2023-02-04T03:10:41.255Z,112.00
2023-02-04T03:13:24.934Z,109.88
2023-02-04T03:16:16.070Z,106.70
2023-02-04T03:18:58.273Z,108.72
2023-02-04T03:21:46.942Z,109.70
2023-02-04T03:24:31.228Z,102.40
2023-02-04T03:27:19.951Z,102.32
2023-02-04T03:30:08.866Z,99.30
2023-02-04T03:33:04.969Z,92.18
2023-02-04T03:35:53.386Z,93.40
2023-02-04T03:38:35.991Z,94.65
2023-02-04T03:41:24.196Z,96.25
2023-02-04T03:44:06.942Z,95.35
2023-02-04T03:46:56.543Z,95.40
2023-02-04T03:49:39.944Z,94.95
2023-02-04T03:52:22.155Z,94.65
2023-02-04T03:55:11.083Z,93.03
2023-02-04T03:58:00.220Z,95.60
2023-02-04T04:00:42.263Z,88.78
2023-02-04T04:03:30.368Z,88.43
2023-02-04T04:06:13.974Z,80.55
2023-02-04T04:09:02.672Z,73.82
2023-02-04T04:11:44.940Z,52.53
2023-02-04T04:14:33.995Z,45.00
2023-02-04T04:17:22.953Z,41.22
2023-02-04T04:20:12.147Z,39.13
2023-02-04T04:22:54.951Z,40.50
2023-02-04T04:25:43.923Z,41.22
2023-02-04T04:28:26.350Z,34.47
2023-02-04T04:31:15.130Z,30.85
2023-02-04T04:34:09.928Z,27.63
2023-02-04T04:36:58.931Z,24.08
2023-02-04T04:39:41.215Z,23.10
2023-02-04T04:42:29.890Z,23.90
2023-02-04T04:45:15.588Z,22.90
2023-02-04T04:48:04.994Z,25.67
2023-02-04T04:50:48.136Z,28.10
2023-02-04T04:53:36.885Z,25.92
2023-02-04T04:56:20.232Z,28.15
2023-02-04T04:59:08.909Z,28.90
2023-02-04T05:01:51.194Z,28.25
2023-02-04T05:04:40.019Z,25.05
2023-02-04T05:07:28.942Z,24.65
2023-02-04T05:10:18.213Z,24.88
2023-02-04T05:13:00.164Z,26.23
2023-02-04T05:15:48.958Z,25.42
2023-02-04T05:18:38.943Z,23.02
2023-02-04T05:21:21.111Z,20.25
2023-02-04T05:24:09.914Z,21.38
2023-02-04T05:26:58.189Z,20.20
2023-02-04T05:29:40.994Z,20.10
2023-02-04T05:32:35.856Z,19.13
2023-02-04T05:35:24.970Z,20.20
2023-02-04T05:38:07.184Z,18.77
2023-02-04T05:40:55.979Z,18.40
2023-02-04T05:43:38.198Z,20.73
2023-02-04T05:46:26.972Z,18.58
2023-02-04T05:49:09.514Z,16.67
2023-02-04T05:51:57.931Z,15.90
2023-02-04T05:54:40.360Z,15.32
2023-02-04T05:57:28.910Z,14.52
2023-02-04T06:00:12.215Z,13.68
2023-02-04T06:03:02.039Z,13.13
2023-02-04T06:05:45.350Z,13.68
2023-02-04T06:08:33.982Z,13.32
2023-02-04T06:11:18.540Z,14.95
2023-02-04T06:14:07.326Z,14.00
2023-02-04T06:16:49.211Z,13.52
2023-02-04T06:19:38.973Z,12.53
2023-02-04T06:22:21.371Z,12.85
2023-02-04T06:25:09.864Z,12.27
2023-02-04T06:27:52.342Z,12.63
2023-02-04T06:30:41.067Z,13.18
2023-02-04T06:33:36.828Z,13.43
2023-02-04T06:36:25.976Z,14.85
2023-02-04T06:39:08.418Z,15.43
2023-02-04T06:41:56.969Z,15.38
2023-02-04T06:44:39.421Z,15.05
2023-02-04T06:47:27.968Z,15.90
2023-02-04T06:50:10.428Z,16.75
2023-02-04T06:52:58.924Z,16.60
2023-02-04T06:55:41.401Z,13.73
2023-02-04T06:58:30.034Z,13.95
2023-02-04T07:01:12.221Z,12.70
2023-02-04T07:04:01.995Z,12.32
2023-02-04T07:06:44.365Z,12.60
2023-02-04T07:09:32.954Z,12.60
2023-02-04T07:12:21.962Z,11.02
2023-02-04T07:15:11.314Z,11.77
2023-02-04T07:17:53.873Z,12.93
2023-02-04T07:20:49.912Z,15.43
2023-02-04T07:23:38.909Z,11.25
2023-02-04T07:26:21.283Z,10.93
2023-02-04T07:29:17.324Z,12.13
2023-02-04T07:32:03.300Z,10.55
2023-02-04T07:34:51.943Z,15.40
2023-02-04T07:37:34.367Z,10.27
2023-02-04T07:40:22.952Z,11.75
2023-02-04T07:43:05.249Z,13.25
2023-02-04T07:45:54.998Z,14.55
2023-02-04T07:48:37.345Z,12.55
2023-02-04T07:51:27.787Z,11.73
2023-02-04T07:54:10.377Z,14.77
2023-02-04T07:56:59.003Z,14.52
2023-02-04T07:59:41.286Z,15.90
2023-02-04T08:02:30.016Z,14.55
2023-02-04T08:05:13.360Z,14.85
2023-02-04T08:08:01.916Z,14.80
2023-02-04T08:10:44.237Z,17.40
2023-02-04T08:13:32.950Z,11.05
2023-02-04T08:16:15.310Z,10.73
2023-02-04T08:19:03.920Z,14.57
2023-02-04T08:21:46.226Z,18.67
2023-02-04T08:24:35.290Z,11.93
2023-02-04T08:27:17.411Z,12.02
2023-02-04T08:30:05.890Z,13.57
2023-02-04T08:33:01.798Z,15.18
2023-02-04T08:36:05.933Z,11.15
2023-02-04T08:38:48.074Z,11.50
2023-02-04T08:41:36.959Z,9.77
2023-02-04T08:44:26.209Z,16.17
2023-02-04T08:47:08.883Z,13.65
2023-02-04T08:49:57.909Z,12.23
2023-02-04T08:52:46.977Z,14.05
2023-02-04T08:55:36.155Z,10.93
2023-02-04T08:58:18.863Z,12.20
2023-02-04T09:01:08.465Z,10.00
2023-02-04T09:03:49.915Z,12.25
2023-02-04T09:06:39.155Z,7.55
2023-02-04T09:09:23.020Z,9.00
2023-02-04T09:12:06.271Z,10.52
2023-02-04T09:14:54.876Z,10.65
2023-02-04T09:17:38.350Z,11.30
2023-02-04T09:20:26.940Z,11.07
2023-02-04T09:23:16.274Z,10.77
2023-02-04T09:25:58.930Z,10.55
2023-02-04T09:28:41.300Z,11.40
2023-02-04T09:31:31.053Z,11.80
2023-02-04T09:34:27.374Z,11.57
2023-02-04T09:37:16.391Z,11.77
2023-02-04T09:39:58.005Z,10.80
2023-02-04T09:42:49.894Z,10.25
2023-02-04T09:45:38.046Z,11.57
2023-02-04T09:48:27.264Z,12.05
2023-02-04T09:51:14.926Z,11.02
2023-02-04T09:54:33.995Z,11.95
2023-02-04T09:57:28.365Z,12.80
2023-02-04T10:00:09.996Z,12.13
2023-02-04T10:02:52.248Z,12.52
2023-02-04T10:05:46.996Z,11.70
2023-02-04T10:08:41.344Z,12.88
2023-02-04T10:11:26.881Z,11.07
2023-02-04T10:14:22.320Z,10.88
2023-02-04T10:17:07.885Z,12.30
2023-02-04T10:19:50.512Z,13.13
2023-02-04T10:22:39.541Z,13.13
2023-02-04T10:25:32.305Z,13.23
2023-02-04T10:28:13.930Z,12.05
2023-02-04T10:30:56.267Z,12.20
2023-02-04T10:33:46.943Z,11.38
2023-02-04T10:36:35.285Z,12.15
2023-02-04T10:39:20.893Z,11.18
2023-02-04T10:42:03.522Z,10.90
2023-02-04T10:44:51.859Z,11.77
2023-02-04T10:47:34.203Z,10.68
2023-02-04T10:50:33.091Z,11.40
2023-02-04T10:53:43.895Z,12.15
2023-02-04T10:56:35.935Z,10.57
2023-02-04T10:59:34.899Z,11.82
2023-02-04T11:02:44.194Z,10.65
2023-02-04T11:05:39.286Z,11.15
2023-02-04T11:08:32.353Z,12.13
2023-02-04T11:11:25.963Z,12.63
2023-02-04T11:14:10.232Z,11.75
2023-02-04T11:16:58.892Z,11.85
2023-02-04T11:19:48.206Z,11.93
2023-02-04T11:22:50.884Z,11.45
2023-02-04T11:25:43.360Z,12.52
2023-02-04T11:28:34.909Z,11.38
2023-02-04T11:31:48.168Z,11.95
2023-02-04T11:34:39.995Z,10.57
2023-02-04T11:37:37.326Z,11.05
2023-02-04T11:40:33.993Z,10.80
2023-02-04T11:43:23.310Z,10.70
2023-02-04T11:46:21.021Z,10.70
2023-02-04T11:49:12.988Z,10.90
2023-02-04T11:52:22.166Z,10.48
2023-02-04T11:55:08.943Z,10.00
2023-02-04T11:58:03.230Z,10.20
2023-02-04T12:00:45.934Z,11.63
2023-02-04T12:03:35.244Z,10.48
2023-02-04T12:06:24.253Z,10.15
2023-02-04T12:09:33.414Z,10.60
2023-02-04T12:12:17.941Z,10.55
2023-02-04T12:15:22.936Z,10.60
2023-02-04T12:18:19.333Z,9.77
2023-02-04T12:21:08.983Z,9.57
2023-02-04T12:23:51.326Z,9.38
2023-02-04T12:26:39.902Z,9.57
2023-02-04T12:29:22.274Z,9.05
2023-02-04T12:32:11.869Z,9.38
2023-02-04T12:35:01.235Z,8.75
2023-02-04T12:37:42.901Z,9.00
2023-02-04T12:40:32.307Z,9.27
2023-02-04T12:43:14.876Z,9.20
2023-02-04T12:46:04.321Z,9.57
2023-02-04T12:48:48.954Z,8.82
2023-02-04T12:51:38.197Z,9.00
2023-02-04T12:54:20.870Z,8.90
2023-02-04T12:57:03.903Z,9.23
2023-02-04T12:59:53.981Z,9.77
2023-02-04T13:02:42.283Z,9.57
2023-02-04T13:05:24.895Z,10.43
2023-02-04T13:08:13.821Z,10.13
2023-02-04T13:11:04.911Z,10.00
2023-02-04T13:13:47.232Z,9.95
2023-02-04T13:16:35.937Z,10.25
2023-02-04T13:19:25.317Z,9.90
2023-02-04T13:22:07.894Z,10.50
2023-02-04T13:24:56.918Z,10.07
2023-02-04T13:27:39.354Z,10.75
2023-02-04T13:30:27.845Z,10.52
2023-02-04T13:33:16.782Z,10.95
2023-02-04T13:36:06.896Z,12.20
2023-02-04T13:38:49.876Z,11.88
2023-02-04T13:41:32.380Z,11.00
2023-02-04T13:44:20.902Z,11.32
2023-02-04T13:47:03.336Z,11.13
2023-02-04T13:49:51.861Z,12.32
2023-02-04T13:52:35.495Z,13.32
2023-02-04T13:55:23.903Z,14.13
2023-02-04T13:58:06.344Z,14.20
2023-02-04T14:00:54.978Z,13.25
2023-02-04T14:03:38.398Z,14.30
2023-02-04T14:06:28.961Z,15.93
2023-02-04T14:09:13.098Z,14.73
2023-02-04T14:14:44.309Z,13.95
2023-02-04T14:17:32.898Z,14.45
2023-02-04T14:20:15.384Z,15.18
2023-02-04T14:23:03.988Z,14.82
2023-02-04T14:25:47.312Z,14.75
2023-02-04T14:28:35.933Z,15.73
2023-02-04T14:31:18.212Z,15.45
2023-02-04T14:34:07.219Z,15.48
2023-02-04T14:36:49.235Z,15.65
2023-02-04T14:39:38.011Z,16.77
2023-02-04T14:42:20.257Z,16.95
2023-02-04T14:45:08.882Z,19.13
2023-02-04T14:47:53.637Z,18.83
2023-02-04T14:50:42.870Z,20.00
2023-02-04T14:53:25.256Z,19.02
2023-02-04T14:56:13.917Z,19.35
2023-02-04T14:58:56.295Z,19.80
2023-02-04T15:01:44.892Z,18.20
2023-02-04T15:04:27.232Z,19.58
2023-02-04T15:07:15.877Z,19.40
2023-02-04T15:09:58.235Z,21.02
2023-02-04T15:12:46.846Z,21.02
2023-02-04T15:15:30.360Z,21.35
2023-02-04T15:18:19.853Z,20.35
2023-02-04T15:21:08.885Z,20.40
2023-02-04T15:23:57.860Z,20.42
2023-02-04T15:26:40.218Z,21.08
2023-02-04T15:29:28.874Z,21.05
2023-02-04T15:32:11.311Z,20.45
2023-02-04T15:35:06.867Z,22.17
2023-02-04T15:37:51.906Z,20.27
2023-02-04T15:40:44.244Z,21.77
2023-02-04T15:43:33.196Z,21.70
2023-02-04T15:46:15.935Z,21.50
2023-02-04T15:49:04.336Z,22.40
2023-02-04T15:51:47.011Z,22.98
2023-02-04T15:54:36.317Z,21.52
2023-02-04T15:57:18.924Z,22.30
2023-02-04T16:00:01.108Z,22.50
2023-02-04T16:02:49.983Z,23.27
2023-02-04T16:05:39.204Z,24.35
2023-02-04T16:08:21.883Z,23.30
2023-02-04T16:11:10.947Z,24.30
2023-02-04T16:13:54.209Z,24.00
2023-02-04T16:16:42.931Z,24.20
2023-02-04T16:19:25.275Z,23.00
2023-02-04T16:22:13.881Z,25.15
2023-02-04T16:24:56.389Z,24.00
2023-02-04T16:27:45.945Z,22.10
2023-02-04T16:30:28.241Z,23.15
2023-02-04T16:33:16.882Z,23.00
2023-02-04T16:36:14.700Z,24.58
2023-02-04T16:38:57.987Z,24.35
2023-02-04T16:41:40.160Z,24.85
2023-02-04T16:44:28.938Z,26.13
2023-02-04T16:47:11.921Z,24.88
2023-02-04T16:50:06.944Z,24.30
2023-02-04T16:52:49.045Z,24.38
2023-02-04T16:55:37.888Z,25.10
2023-02-04T16:58:27.363Z,26.50
2023-02-04T17:01:10.263Z,23.75
2023-02-04T17:04:00.352Z,24.38
2023-02-04T17:06:44.039Z,24.95
2023-02-04T17:09:32.294Z,23.13
2023-02-04T17:12:14.890Z,23.70
2023-02-04T17:17:50.468Z,24.15
2023-02-04T17:20:39.627Z,22.60
2023-02-04T17:23:21.897Z,23.15
2023-02-04T17:26:10.575Z,22.05
2023-02-04T17:28:53.847Z,23.00
2023-02-04T17:31:43.560Z,23.63
2023-02-04T17:34:26.338Z,21.50
2023-02-04T17:37:16.554Z,21.98
2023-02-04T17:39:58.822Z,21.42
2023-02-04T17:42:48.505Z,21.63
2023-02-04T17:45:31.478Z,20.85
2023-02-04T17:48:20.444Z,21.45
2023-02-04T17:51:02.655Z,21.52
2023-02-04T17:53:51.491Z,20.15
2023-02-04T17:56:34.125Z,20.73
2023-02-04T17:59:23.500Z,22.10
2023-02-04T18:02:05.871Z,26.08
2023-02-04T18:04:54.449Z,24.92
2023-02-04T18:07:43.612Z,25.33
2023-02-04T18:10:43.755Z,24.55
2023-02-04T18:13:31.780Z,26.08
2023-02-04T18:16:41.807Z,24.20
2023-02-04T18:19:30.550Z,26.58
2023-02-04T18:22:26.655Z,26.75
2023-02-04T18:25:09.501Z,25.35
2023-02-04T18:27:57.899Z,25.33
2023-02-04T18:30:40.512Z,25.55
2023-02-04T18:33:32.724Z,27.65
2023-02-04T18:36:23.433Z,27.85
2023-02-04T18:39:22.522Z,28.52
2023-02-04T18:42:11.401Z,26.45
2023-02-04T18:44:57.849Z,28.88
2023-02-04T18:47:48.434Z,29.23
2023-02-04T18:50:38.819Z,29.77
2023-02-04T18:53:21.444Z,30.17
2023-02-04T18:56:11.419Z,31.60
2023-02-04T18:58:59.438Z,32.60
2023-02-04T19:01:48.534Z,36.03
2023-02-04T19:04:33.948Z,34.55
2023-02-04T19:07:24.855Z,38.30
2023-02-04T19:10:07.775Z,35.67
2023-02-04T19:12:56.476Z,39.03
2023-02-04T19:15:53.252Z,40.67
2023-02-04T19:18:46.541Z,40.20
2023-02-04T19:21:35.769Z,42.93
2023-02-04T19:24:34.455Z,42.63
2023-02-04T19:27:39.837Z,42.35
2023-02-04T19:30:37.518Z,46.97
2023-02-04T19:33:42.685Z,45.80
2023-02-04T19:36:35.354Z,46.45
2023-02-04T19:39:47.478Z,47.03
2023-02-04T19:42:42.007Z,44.33
2023-02-04T19:45:31.538Z,44.08
2023-02-04T19:48:40.957Z,48.35
2023-02-04T19:51:31.429Z,52.88
2023-02-04T19:54:26.341Z,52.08
2023-02-04T19:57:16.471Z,53.33
2023-02-04T19:59:59.566Z,54.40
2023-02-04T20:02:54.429Z,54.55
2023-02-04T20:05:37.110Z,52.33
2023-02-04T20:09:01.388Z,53.67
2023-02-04T20:11:58.080Z,56.05
2023-02-04T20:14:53.417Z,53.65
2023-02-04T20:18:07.376Z,54.63
2023-02-04T20:20:56.833Z,57.38
2023-02-04T20:23:43.414Z,61.80
2023-02-04T20:26:33.398Z,60.10
2023-02-04T20:29:36.377Z,59.05
2023-02-04T20:32:27.319Z,62.50
2023-02-04T20:35:25.439Z,56.88
2023-02-04T20:38:24.726Z,53.72
2023-02-04T20:41:07.352Z,55.55
2023-02-04T20:43:53.002Z,54.75
2023-02-04T20:46:41.455Z,53.28
2023-02-04T20:49:26.715Z,51.00
2023-02-04T20:52:17.366Z,49.08
2023-02-04T20:55:01.333Z,48.88
2023-02-04T20:57:50.469Z,48.63
2023-02-04T21:00:39.750Z,49.45
2023-02-04T21:03:31.471Z,49.65
2023-02-04T21:06:32.729Z,48.92
2023-02-04T21:09:18.416Z,52.42
2023-02-04T21:12:08.864Z,49.50
2023-02-04T21:14:51.460Z,51.75
2023-02-04T21:17:42.184Z,53.90
2023-02-04T21:20:25.477Z,53.25
2023-02-04T21:23:14.719Z,54.97
2023-02-04T21:25:57.358Z,55.53
2023-02-04T21:28:46.376Z,56.30
2023-02-04T21:31:28.850Z,58.95
2023-02-04T21:34:17.462Z,58.17
2023-02-04T21:36:59.775Z,59.08
2023-02-04T21:39:49.463Z,58.15
2023-02-04T21:42:31.689Z,57.75
2023-02-04T21:45:20.328Z,57.33
2023-02-04T21:48:09.903Z,53.20
2023-02-04T21:50:58.665Z,50.55
2023-02-04T21:53:41.463Z,49.60
2023-02-04T21:56:30.466Z,45.08
2023-02-04T21:59:12.756Z,41.05
2023-02-04T22:02:01.466Z,41.28
2023-02-04T22:04:43.700Z,37.42
2023-02-04T22:07:32.397Z,33.50
2023-02-04T22:10:25.332Z,33.03
2023-02-04T22:13:14.470Z,36.23
2023-02-04T22:16:09.266Z,32.63
2023-02-04T22:18:58.362Z,31.98
2023-02-04T22:21:40.705Z,32.55
2023-02-04T22:24:29.442Z,32.50
2023-02-04T22:27:11.638Z,29.20
2023-02-04T22:30:00.396Z,28.73
2023-02-04T22:32:42.736Z,29.00
2023-02-04T22:35:31.564Z,27.45
2023-02-04T22:38:13.718Z,28.02
2023-02-04T22:41:02.414Z,26.20
2023-02-04T22:43:44.793Z,25.98
2023-02-04T22:46:33.512Z,23.88
2023-02-04T22:49:15.708Z,23.67
2023-02-04T22:52:04.371Z,24.80
2023-02-04T22:54:53.305Z,23.00
2023-02-04T22:57:42.522Z,22.80
2023-02-04T23:00:25.672Z,23.80
2023-02-04T23:03:14.409Z,25.35
2023-02-04T23:05:56.674Z,24.75
2023-02-04T23:08:45.451Z,28.23
2023-02-04T23:11:28.858Z,27.73
2023-02-04T23:14:17.382Z,29.23
2023-02-04T23:17:05.704Z,29.73
2023-02-04T23:19:48.330Z,31.58
2023-02-04T23:22:37.691Z,30.88
2023-02-04T23:25:20.453Z,31.23
2023-02-04T23:28:02.639Z,32.30
2023-02-04T23:30:51.450Z,33.30
2023-02-04T23:33:40.377Z,32.88
2023-02-04T23:36:22.815Z,32.15
2023-02-04T23:39:12.396Z,34.33
2023-02-04T23:41:55.744Z,33.67
2023-02-04T23:44:44.377Z,34.45
2023-02-04T23:47:26.666Z,34.78
2023-02-04T23:50:15.404Z,36.63
2023-02-04T23:52:57.749Z,36.75
2023-02-04T23:55:46.419Z,37.72
2023-02-04T23:58:28.708Z,39.95
